createdAt,value
2018-07-01T14:24:26.420Z,39.3
2018-07-01T14:24:46.777Z,40.1
2018-07-01T14:25:07.163Z,40.1
2018-07-01T14:25:27.492Z,41
2018-07-01T14:25:48.722Z,41.2
2018-07-01T14:26:09.269Z,42.2
2018-07-01T14:26:29.476Z,41.9
2018-07-01T14:26:49.749Z,40.7
2018-07-01T14:27:10.325Z,40.7
2018-07-01T14:27:30.735Z,41.2
2018-07-01T14:27:51.286Z,41
2018-07-01T14:28:11.711Z,40.9
2018-07-01T14:28:32.246Z,40.8
2018-07-01T14:28:52.660Z,40.4
2018-07-01T14:29:13.195Z,40.8
2018-07-01T14:29:33.667Z,40.7
2018-07-01T14:29:54.069Z,40.6
2018-07-01T14:30:14.558Z,40.8
2018-07-01T14:30:35.229Z,41.2
2018-07-01T14:30:55.793Z,40.9
2018-07-01T14:31:16.102Z,40.9
2018-07-01T14:31:36.306Z,40.2
2018-07-01T14:31:56.761Z,41.2
2018-07-01T14:32:17.186Z,40.8
2018-07-01T14:32:38.251Z,41
2018-07-01T14:32:58.487Z,41.1
2018-07-01T14:33:19.707Z,41.1
2018-07-01T14:33:40.152Z,41.1
2018-07-01T14:34:00.440Z,40.5
2018-07-01T14:34:20.944Z,40.2
2018-07-01T14:34:41.316Z,39.5
2018-07-01T14:35:01.747Z,38.9
2018-07-01T14:35:22.301Z,38.5
2018-07-01T14:35:42.914Z,38.4
2018-07-01T14:36:03.269Z,38.9
2018-07-01T14:36:23.511Z,38
2018-07-01T14:36:43.991Z,37.3
2018-07-01T14:37:04.428Z,37.4
2018-07-01T14:37:24.950Z,37.1
2018-07-01T14:37:45.288Z,36.7
2018-07-01T14:38:06.095Z,37.1
2018-07-01T14:38:28.098Z,37.9
2018-07-01T14:38:48.849Z,38.6
2018-07-01T14:39:09.889Z,38.3
2018-07-01T14:39:29.918Z,38.2
2018-07-01T14:39:50.210Z,38
2018-07-01T14:40:10.595Z,38.2
2018-07-01T14:40:30.845Z,38.2
2018-07-01T14:40:51.743Z,38.6
2018-07-01T14:41:12.025Z,38.6
2018-07-01T14:41:32.286Z,38.9
2018-07-01T14:41:52.657Z,39.9
2018-07-01T14:42:13.017Z,39.1
2018-07-01T14:42:33.295Z,38.8
2018-07-01T14:42:53.576Z,38.9
2018-07-01T14:43:13.877Z,38.9
2018-07-01T14:43:34.106Z,39
2018-07-01T14:43:54.306Z,39
2018-07-01T14:44:14.892Z,39
2018-07-01T14:44:35.368Z,38.9
2018-07-01T14:44:55.650Z,38.3
2018-07-01T14:45:16.238Z,38.1
2018-07-01T14:45:36.491Z,38.1
2018-07-01T14:45:56.728Z,38.4
2018-07-01T14:46:16.977Z,38.8
2018-07-01T14:46:37.497Z,38.5
2018-07-01T14:46:57.866Z,38.8
2018-07-01T14:47:18.199Z,38.8
2018-07-01T14:47:38.534Z,38.1
2018-07-01T14:47:58.878Z,38.3
2018-07-01T14:48:19.035Z,38.5
2018-07-01T14:48:39.273Z,38.9
2018-07-01T14:48:59.772Z,38.7
2018-07-01T14:49:20.168Z,39
2018-07-01T14:49:40.739Z,38.7
2018-07-01T14:50:01.031Z,38.9
2018-07-01T14:50:21.280Z,38.2
2018-07-01T14:50:41.855Z,37.8
2018-07-01T14:51:03.134Z,37.6
2018-07-01T14:51:23.321Z,37.8
2018-07-01T14:51:43.671Z,37.7
2018-07-01T14:52:03.870Z,37.5
2018-07-01T14:52:24.222Z,37.4
2018-07-01T14:52:44.561Z,37.9
2018-07-01T14:53:04.838Z,37.6
2018-07-01T14:53:25.226Z,37.1
2018-07-01T14:53:45.501Z,37.1
2018-07-01T14:54:05.859Z,36
2018-07-01T14:54:26.163Z,35
2018-07-01T14:54:48.412Z,35.7
2018-07-01T14:55:08.850Z,36
2018-07-01T14:55:29.210Z,36.4
2018-07-01T14:55:49.516Z,35.4
2018-07-01T14:56:09.887Z,35.5
2018-07-01T14:56:30.271Z,35.4
2018-07-01T14:56:50.718Z,35.5
2018-07-01T14:57:10.971Z,35.2
2018-07-01T14:57:31.282Z,34.9
2018-07-01T14:57:51.791Z,35.2
2018-07-01T14:58:12.181Z,35.7
2018-07-01T14:58:32.435Z,35.5
2018-07-01T14:58:52.720Z,35.7
2018-07-01T14:59:12.967Z,36.3
2018-07-01T14:59:33.467Z,36.8
2018-07-01T14:59:53.994Z,36.6
2018-07-01T15:00:14.331Z,36.5
2018-07-01T15:00:34.643Z,36.5
2018-07-01T15:00:54.917Z,36.6
2018-07-01T15:01:15.290Z,36.9
2018-07-01T15:01:35.767Z,37.1
2018-07-01T15:01:55.997Z,37
2018-07-01T15:02:16.390Z,37.4
2018-07-01T15:02:36.736Z,37.1
2018-07-01T15:02:56.982Z,36.9
2018-07-01T15:03:17.440Z,36.5
2018-07-01T15:03:37.723Z,36.6
2018-07-01T15:03:58.240Z,36.5
2018-07-01T15:04:18.680Z,36.2
2018-07-01T15:04:39.036Z,36.2
2018-07-01T15:04:59.535Z,36.4
2018-07-01T15:05:19.969Z,36.6
2018-07-01T15:05:40.172Z,36.9
2018-07-01T15:06:00.562Z,36.6
2018-07-01T15:06:20.948Z,37.1
2018-07-01T15:06:41.209Z,37.6
2018-07-01T15:07:01.518Z,37.8
2018-07-01T15:07:21.847Z,38
2018-07-01T15:07:41.971Z,37.9
2018-07-01T15:08:02.500Z,38
2018-07-01T15:08:22.878Z,37
2018-07-01T15:08:43.285Z,36.8
2018-07-01T15:09:04.324Z,37.1
2018-07-01T15:09:24.622Z,37.4
2018-07-01T15:09:45.080Z,37.9
2018-07-01T15:10:05.583Z,37.7
2018-07-01T15:10:25.873Z,37.7
2018-07-01T15:10:46.200Z,37.2
2018-07-01T15:11:06.513Z,37.5
2018-07-01T15:11:27.715Z,37.7
2018-07-01T15:11:48.770Z,37.4
2018-07-01T15:12:09.092Z,37.2
2018-07-01T15:12:29.301Z,36.8
2018-07-01T15:12:49.629Z,36.8
2018-07-01T15:13:09.876Z,37
2018-07-01T15:13:30.634Z,37
2018-07-01T15:13:51.015Z,36.3
2018-07-01T15:14:11.355Z,35.9
2018-07-01T15:14:31.693Z,36.7
2018-07-01T15:14:52.085Z,37.9
2018-07-01T15:15:12.317Z,38
2018-07-01T15:15:32.494Z,37.1
2018-07-01T15:15:53.767Z,36.9
2018-07-01T15:16:14.623Z,37.4
2018-07-01T15:16:34.949Z,37.5
2018-07-01T15:16:55.371Z,36.9
2018-07-01T15:17:15.682Z,36.5
2018-07-01T15:17:36.171Z,36.8
2018-07-01T15:17:56.656Z,36.6
2018-07-01T15:18:17.103Z,37.2
2018-07-01T15:18:37.478Z,37.5
2018-07-01T15:18:57.737Z,37.8
2018-07-01T15:19:18.051Z,37.8
2018-07-01T15:19:38.407Z,37.4
2018-07-01T15:19:58.701Z,37.5
2018-07-01T15:20:19.036Z,37.7
2018-07-01T15:20:39.364Z,37.4
2018-07-01T15:20:59.699Z,37.6
2018-07-01T15:21:19.937Z,38.2
2018-07-01T15:21:40.333Z,38.8
2018-07-01T15:22:01.230Z,39
2018-07-01T15:22:21.509Z,39.4
2018-07-01T15:22:41.924Z,39.2
2018-07-01T15:23:02.169Z,38
2018-07-01T15:23:22.389Z,37.8
2018-07-01T15:23:42.620Z,38
2018-07-01T15:24:03.136Z,38.6
2018-07-01T15:24:23.582Z,37.7
2018-07-01T15:24:44.720Z,37.4
2018-07-01T15:25:04.730Z,37.3
2018-07-01T15:25:25.072Z,37.6
2018-07-01T15:25:45.316Z,37.3
2018-07-01T15:26:06.289Z,38
2018-07-01T15:26:26.658Z,38
2018-07-01T15:26:46.918Z,37.8
2018-07-01T15:27:07.178Z,38.3
2018-07-01T15:27:27.500Z,38.4
2018-07-01T15:27:47.722Z,37.8
2018-07-01T15:28:08.146Z,37.8
2018-07-01T15:28:28.393Z,37.2
2018-07-01T15:28:48.627Z,37.1
2018-07-01T15:29:09.061Z,37.7
2018-07-01T15:29:29.274Z,37.2
2018-07-01T15:29:49.544Z,37
2018-07-01T15:30:09.985Z,36.7
2018-07-01T15:30:30.382Z,36.5
2018-07-01T15:30:50.687Z,35.9
2018-07-01T15:31:11.064Z,36.8
2018-07-01T15:31:31.808Z,36.5
2018-07-01T15:31:52.015Z,36.8
2018-07-01T15:32:12.368Z,37.6
2018-07-01T15:32:32.802Z,37.8
2018-07-01T15:32:53.311Z,37.8
2018-07-01T15:33:13.587Z,37.2
2018-07-01T15:33:34.051Z,36.7
2018-07-01T15:33:54.380Z,36.6
2018-07-01T15:34:14.782Z,36.3
2018-07-01T15:34:35.091Z,36.8
2018-07-01T15:34:55.426Z,36.7
2018-07-01T15:35:15.997Z,36.7
2018-07-01T15:35:36.423Z,36.5
2018-07-01T15:35:56.739Z,36.6
2018-07-01T15:36:17.198Z,36.6
2018-07-01T15:36:37.852Z,36.6
2018-07-01T15:36:58.232Z,36.6
2018-07-01T15:37:18.597Z,36.9
2018-07-01T15:37:38.931Z,36.7
2018-07-01T15:37:59.224Z,37.4
2018-07-01T15:38:19.626Z,38.2
2018-07-01T15:38:39.967Z,38.4
2018-07-01T15:39:00.245Z,38
2018-07-01T15:39:20.473Z,37.4
2018-07-01T15:39:40.773Z,38
2018-07-01T15:40:01.159Z,38
2018-07-01T15:40:21.703Z,38.3
2018-07-01T15:40:41.889Z,38.1
2018-07-01T15:41:02.180Z,37.7
2018-07-01T15:41:22.358Z,37.1
2018-07-01T15:41:42.815Z,37.5
2018-07-01T15:42:03.250Z,36.9
2018-07-01T15:42:23.577Z,36.5
2018-07-01T15:42:43.901Z,36.1
2018-07-01T15:43:04.175Z,35.7
2018-07-01T15:43:24.480Z,36.5
2018-07-01T15:43:44.728Z,37.4
2018-07-01T15:44:05.253Z,37.9
2018-07-01T15:44:25.533Z,37.9
2018-07-01T15:44:45.849Z,37.8
2018-07-01T15:45:06.176Z,37.4
2018-07-01T15:45:26.462Z,37.1
2018-07-01T15:45:46.906Z,36.9
2018-07-01T15:46:07.241Z,37.6
2018-07-01T15:46:27.590Z,36.8
2018-07-01T15:46:48.109Z,36.4
2018-07-01T15:47:08.384Z,36.3
2018-07-01T15:47:28.691Z,36
2018-07-01T15:47:48.904Z,36.6
2018-07-01T15:48:09.177Z,36.3
2018-07-01T15:48:29.611Z,35.6
2018-07-01T15:48:50.085Z,35.5
2018-07-01T15:49:10.504Z,35.7
2018-07-01T15:49:30.775Z,36
2018-07-01T15:49:51.228Z,36.2
2018-07-01T15:50:11.664Z,36.4
2018-07-01T15:50:31.893Z,35.9
2018-07-01T15:50:52.238Z,36.1
2018-07-01T15:51:12.481Z,35.9
2018-07-01T15:51:32.774Z,35.7
2018-07-01T15:51:53.069Z,34.8
2018-07-01T15:52:13.406Z,34.8
2018-07-01T15:52:33.688Z,35.1
2018-07-01T15:52:54.020Z,35
2018-07-01T15:53:14.421Z,35.2
2018-07-01T15:53:34.766Z,36.4
2018-07-01T15:53:55.173Z,36.8
2018-07-01T15:54:15.544Z,36.6
2018-07-01T15:54:35.832Z,36.6
2018-07-01T15:54:56.095Z,36.2
2018-07-01T15:55:16.376Z,36.2
2018-07-01T15:55:36.770Z,36.6
2018-07-01T15:55:57.147Z,36.4
2018-07-01T15:56:17.415Z,36.1
2018-07-01T15:56:37.737Z,36
2018-07-01T15:56:58.067Z,36.3
2018-07-01T15:57:18.465Z,36.4
2018-07-01T15:57:38.829Z,35.3
2018-07-01T15:57:59.217Z,35
2018-07-01T15:58:19.543Z,34.3
2018-07-01T15:58:39.855Z,34.2
2018-07-01T15:59:00.227Z,34.3
2018-07-01T15:59:20.516Z,35.1
2018-07-01T15:59:40.935Z,34.8
2018-07-01T16:00:01.400Z,34.6
2018-07-01T16:00:21.663Z,34.5
2018-07-01T16:00:42.041Z,34.3
2018-07-01T16:01:02.368Z,33.3
2018-07-01T16:01:22.690Z,33.8
2018-07-01T16:01:42.891Z,33.7
2018-07-01T16:02:03.160Z,33.8
2018-07-01T16:02:23.558Z,33.1
2018-07-01T16:02:43.773Z,34.1
2018-07-01T16:03:04.006Z,33.8
2018-07-01T16:03:24.453Z,33.2
2018-07-01T16:03:44.849Z,33.2
2018-07-01T16:04:05.292Z,33.3
2018-07-01T16:04:25.638Z,34.8
2018-07-01T16:04:45.961Z,34.7
2018-07-01T16:05:06.420Z,34.4
2018-07-01T16:05:26.828Z,34.3
2018-07-01T16:05:47.132Z,33.9
2018-07-01T16:06:07.471Z,33.3
2018-07-01T16:06:28.782Z,33.8
2018-07-01T16:06:49.177Z,34
2018-07-01T16:07:09.587Z,33.9
2018-07-01T16:07:29.894Z,34
2018-07-01T16:07:50.264Z,34.4
2018-07-01T16:08:10.949Z,34.6
2018-07-01T16:08:31.341Z,34.3
2018-07-01T16:08:51.641Z,34.5
2018-07-01T16:09:12.047Z,35.4
2018-07-01T16:09:32.285Z,34.8
2018-07-01T16:09:52.566Z,34
2018-07-01T16:10:12.944Z,33.5
2018-07-01T16:10:33.303Z,34.1
2018-07-01T16:10:53.568Z,34.3
2018-07-01T16:11:13.999Z,34.2
2018-07-01T16:11:34.284Z,34.1
2018-07-01T16:11:54.553Z,33.4
2018-07-01T16:12:14.842Z,33.5
2018-07-01T16:12:35.302Z,33.6
2018-07-01T16:12:55.758Z,33.3
2018-07-01T16:13:16.198Z,33.2
2018-07-01T16:13:36.501Z,33
2018-07-01T16:13:56.870Z,33.4
2018-07-01T16:14:17.868Z,33.9
2018-07-01T16:14:38.270Z,34.3
2018-07-01T16:14:58.659Z,34.3
2018-07-01T16:15:19.013Z,34.2
2018-07-01T16:15:39.276Z,34.7
2018-07-01T16:15:59.770Z,34.6
2018-07-01T16:16:20.111Z,34.6
2018-07-01T16:16:40.681Z,34.4
2018-07-01T16:17:01.275Z,34.4
2018-07-01T16:17:21.684Z,34.4
2018-07-01T16:17:42.023Z,34.2
2018-07-01T16:18:03.339Z,34.1
2018-07-01T16:18:23.559Z,34.2
2018-07-01T16:18:43.865Z,34.6
2018-07-01T16:19:04.144Z,34.4
2018-07-01T16:19:24.297Z,34
2018-07-01T16:19:44.654Z,34.7
2018-07-01T16:20:04.879Z,34.6
2018-07-01T16:20:25.186Z,35.1
2018-07-01T16:20:45.341Z,35.1
2018-07-01T16:21:05.807Z,35.5
2018-07-01T16:21:26.072Z,34.8
2018-07-01T16:21:46.757Z,34.8
2018-07-01T16:22:06.949Z,34.1
2018-07-01T16:22:27.169Z,34.3
2018-07-01T16:22:47.518Z,34.3
2018-07-01T16:23:08.000Z,35.6
2018-07-01T16:23:28.491Z,36.6
2018-07-01T16:23:48.899Z,36.7
2018-07-01T16:24:09.222Z,37
2018-07-01T16:24:29.758Z,37.4
2018-07-01T16:24:50.028Z,37.4
2018-07-01T16:25:10.501Z,38
2018-07-01T16:25:30.720Z,37.7
2018-07-01T16:25:50.925Z,36.9
2018-07-01T16:26:11.543Z,36.4
2018-07-01T16:26:31.602Z,36.4
2018-07-01T16:26:51.871Z,36.4
2018-07-01T16:27:12.123Z,35.8
2018-07-01T16:27:32.428Z,36.1
2018-07-01T16:27:52.726Z,36.1
2018-07-01T16:28:12.941Z,36.3
2018-07-01T16:28:33.132Z,36.9
2018-07-01T16:28:53.702Z,37
2018-07-01T16:29:14.292Z,36.9
2018-07-01T16:29:34.483Z,37.2
2018-07-01T16:29:54.969Z,36.8
2018-07-01T16:30:15.179Z,36.8
2018-07-01T16:30:35.332Z,37.2
2018-07-01T16:30:55.518Z,37.4
2018-07-01T16:31:15.942Z,37.6
2018-07-01T16:31:36.210Z,37.9
2018-07-01T16:31:56.532Z,38
2018-07-01T16:32:16.966Z,37.8
2018-07-01T16:32:38.400Z,37.8
2018-07-01T16:32:58.736Z,37.3
2018-07-01T16:33:19.165Z,37.2
2018-07-01T16:33:39.417Z,36.9
2018-07-01T16:33:59.804Z,36.6
2018-07-01T16:34:19.982Z,37
2018-07-01T16:34:40.303Z,37.4
2018-07-01T16:35:01.336Z,37.7
2018-07-01T16:35:21.855Z,37
2018-07-01T16:35:42.239Z,36.6
2018-07-01T16:36:02.410Z,36.8
2018-07-01T16:36:22.809Z,37
2018-07-01T16:36:43.043Z,37.4
2018-07-01T16:37:03.405Z,37.4
2018-07-01T16:37:23.704Z,37.3
2018-07-01T16:37:44.107Z,37
2018-07-01T16:38:04.629Z,37
2018-07-01T16:38:25.121Z,37.3
2018-07-01T16:38:46.427Z,36.8
2018-07-01T16:39:06.700Z,37.1
2018-07-01T16:39:27.092Z,37.7
2018-07-01T16:39:47.460Z,38
2018-07-01T16:40:07.829Z,37.7
2018-07-01T16:40:28.321Z,37.8
2018-07-01T16:40:48.987Z,37.5
2018-07-01T16:41:09.529Z,37.6
2018-07-01T16:41:29.955Z,37.8
2018-07-01T16:41:50.199Z,37.9
2018-07-01T16:42:10.491Z,37.4
2018-07-01T16:42:31.350Z,37.8
2018-07-01T16:42:51.796Z,38
2018-07-01T16:43:12.197Z,38
2018-07-01T16:43:32.628Z,38.1
2018-07-01T16:43:52.952Z,37.9
2018-07-01T16:44:13.294Z,37.9
2018-07-01T16:44:33.642Z,37.8
2018-07-01T16:44:54.039Z,38.2
2018-07-01T16:45:14.464Z,37.9
2018-07-01T16:45:34.818Z,37.9
2018-07-01T16:45:55.165Z,38.4
2018-07-01T16:46:15.504Z,38.2
2018-07-01T16:46:35.857Z,38
2018-07-01T16:46:56.216Z,37.7
2018-07-01T16:47:16.493Z,37.7
2018-07-01T16:47:37.008Z,37.6
2018-07-01T16:47:57.692Z,37.4
2018-07-01T16:48:18.065Z,37.3
2018-07-01T16:48:38.468Z,37.2
2018-07-01T16:48:58.902Z,37.9
2018-07-01T16:49:19.246Z,38.3
2018-07-01T16:49:39.731Z,38.5
2018-07-01T16:50:00.984Z,38.5
2018-07-01T16:50:21.317Z,38.4
2018-07-01T16:50:41.659Z,38
2018-07-01T16:51:02.023Z,38
2018-07-01T16:51:23.396Z,37.5
2018-07-01T16:51:43.638Z,37.8
2018-07-01T16:52:03.979Z,37.7
2018-07-01T16:52:24.370Z,38
2018-07-01T16:52:45.256Z,39.1
2018-07-01T16:53:05.489Z,39.5
2018-07-01T16:53:25.920Z,39
2018-07-01T16:53:46.347Z,39.5
2018-07-01T16:54:06.849Z,39.8
2018-07-01T16:54:27.189Z,39.9
2018-07-01T16:54:47.525Z,39.9
2018-07-01T16:55:07.824Z,39.8
2018-07-01T16:55:28.181Z,39.6
2018-07-01T16:55:48.571Z,39.8
2018-07-01T16:56:08.935Z,40
2018-07-01T16:56:29.175Z,40.1
2018-07-01T16:56:49.758Z,40
2018-07-01T16:57:10.088Z,39.5
2018-07-01T16:57:30.473Z,38.9
2018-07-01T16:57:50.850Z,38.3
2018-07-01T16:58:11.100Z,37
2018-07-01T16:58:32.105Z,36.9
2018-07-01T16:58:52.405Z,37.1
2018-07-01T16:59:12.646Z,37.6
2018-07-01T16:59:32.888Z,37
2018-07-01T16:59:53.173Z,36.2
2018-07-01T17:00:13.492Z,36
2018-07-01T17:00:33.786Z,35.9
2018-07-01T17:00:55.080Z,36.8
2018-07-01T17:01:15.396Z,36.1
2018-07-01T17:01:36.360Z,35.8
2018-07-01T17:01:56.642Z,35.7
2018-07-01T17:02:17.030Z,35.9
2018-07-01T17:02:37.236Z,36.4
2018-07-01T17:02:57.539Z,36.2
2018-07-01T17:03:17.987Z,35.8
2018-07-01T17:03:38.368Z,35.6
2018-07-01T17:03:58.705Z,36.3
2018-07-01T17:04:19.034Z,36.3
2018-07-01T17:04:39.352Z,36.3
2018-07-01T17:04:59.610Z,36.4
2018-07-01T17:05:19.911Z,36.4
2018-07-01T17:05:40.616Z,36
2018-07-01T17:06:00.880Z,35.7
2018-07-01T17:06:21.154Z,35.4
2018-07-01T17:06:41.498Z,35.3
2018-07-01T17:07:01.822Z,35.6
2018-07-01T17:07:22.193Z,35.9
2018-07-01T17:07:42.737Z,35.7
2018-07-01T17:08:03.089Z,36.1
2018-07-01T17:08:23.361Z,36.6
2018-07-01T17:08:43.697Z,36.7
2018-07-01T17:09:03.952Z,36.9
2018-07-01T17:09:24.167Z,37
2018-07-01T17:09:44.415Z,36.8
2018-07-01T17:10:04.658Z,37
2018-07-01T17:10:25.089Z,36.9
2018-07-01T17:10:45.494Z,37
2018-07-01T17:11:05.889Z,37.4
2018-07-01T17:11:26.317Z,37.4
2018-07-01T17:11:46.570Z,37.6
2018-07-01T17:12:06.911Z,37.8
2018-07-01T17:12:27.481Z,37.5
2018-07-01T17:12:47.781Z,37.3
2018-07-01T17:13:07.950Z,37
2018-07-01T17:13:28.250Z,37.5
2018-07-01T17:13:48.777Z,37.9
2018-07-01T17:14:09.056Z,38.2
2018-07-01T17:14:29.419Z,37.6
2018-07-01T17:14:49.798Z,38.1
2018-07-01T17:15:10.197Z,38.3
2018-07-01T17:15:30.507Z,38.9
2018-07-01T17:15:50.812Z,38.5
2018-07-01T17:16:11.051Z,38.6
2018-07-01T17:16:32.298Z,38.3
2018-07-01T17:16:52.769Z,39
2018-07-01T17:17:13.145Z,37.9
2018-07-01T17:17:33.405Z,38.3
2018-07-01T17:17:53.772Z,38.9
2018-07-01T17:18:14.087Z,39.1
2018-07-01T17:18:34.887Z,38.1
2018-07-01T17:18:55.218Z,38.2
2018-07-01T17:19:15.470Z,38.1
2018-07-01T17:19:35.796Z,37.5
2018-07-01T17:19:56.223Z,38.1
2018-07-01T17:20:16.538Z,39.2
2018-07-01T17:20:36.924Z,38.9
2018-07-01T17:20:57.342Z,38.7
2018-07-01T17:21:17.658Z,38.3
2018-07-01T17:21:37.936Z,38.2
2018-07-01T17:21:58.246Z,38.5
2018-07-01T17:22:18.636Z,39
2018-07-01T17:22:38.990Z,38.5
2018-07-01T17:22:59.437Z,38.9
2018-07-01T17:23:19.749Z,39.1
2018-07-01T17:23:39.876Z,38.6
2018-07-01T17:24:00.153Z,38.3
2018-07-01T17:24:20.466Z,38.9
2018-07-01T17:24:40.814Z,39.6
2018-07-01T17:25:01.302Z,39.8
2018-07-01T17:25:21.717Z,39.3
2018-07-01T17:25:41.893Z,38.7
2018-07-01T17:26:02.236Z,38.5
2018-07-01T17:26:23.418Z,38
2018-07-01T17:26:43.446Z,38.2
2018-07-01T17:27:04.434Z,38.6
2018-07-01T17:27:24.795Z,38.8
2018-07-01T17:27:45.187Z,38.5
2018-07-01T17:28:06.347Z,37.7
2018-07-01T17:28:26.698Z,37.9
2018-07-01T17:28:46.903Z,37.8
2018-07-01T17:29:07.249Z,37.8
2018-07-01T17:29:28.393Z,38.2
2018-07-01T17:29:49.449Z,37.9
2018-07-01T17:30:09.985Z,37.4
2018-07-01T17:30:30.306Z,37.5
2018-07-01T17:30:50.587Z,37.7
2018-07-01T17:31:10.816Z,38
2018-07-01T17:31:31.265Z,37.9
2018-07-01T17:31:51.645Z,38.2
2018-07-01T17:32:12.155Z,38.1
2018-07-01T17:32:32.543Z,37.6
2018-07-01T17:32:53.032Z,37.7
2018-07-01T17:33:13.386Z,37.9
2018-07-01T17:33:33.741Z,38
2018-07-01T17:33:54.122Z,38.8
2018-07-01T17:34:14.437Z,38.9
2018-07-01T17:34:34.663Z,38.6
2018-07-01T17:34:55.010Z,38.1
2018-07-01T17:35:15.252Z,37.6
2018-07-01T17:35:35.715Z,37.3
2018-07-01T17:35:55.986Z,37.1
2018-07-01T17:36:16.236Z,37.2
2018-07-01T17:36:36.490Z,37.6
2018-07-01T17:36:56.703Z,37.6
2018-07-01T17:37:17.158Z,37.9
2018-07-01T17:37:37.411Z,38.1
2018-07-01T17:37:57.764Z,38.3
2018-07-01T17:38:18.065Z,39.3
2018-07-01T17:38:38.420Z,39.1
2018-07-01T17:38:58.615Z,39
2018-07-01T17:39:18.947Z,39
2018-07-01T17:39:39.224Z,39
2018-07-01T17:39:59.581Z,38.8
2018-07-01T17:40:19.883Z,38.3
2018-07-01T17:40:40.195Z,38.8
2018-07-01T17:41:00.682Z,38
2018-07-01T17:41:21.198Z,38.3
2018-07-01T17:41:41.519Z,38.5
2018-07-01T17:42:01.810Z,39
2018-07-01T17:42:22.166Z,38.5
2018-07-01T17:42:42.594Z,38.3
2018-07-01T17:43:03.788Z,38.9
2018-07-01T17:43:24.099Z,39
2018-07-01T17:43:44.356Z,38.6
2018-07-01T17:44:04.711Z,38.8
2018-07-01T17:44:24.966Z,39.5
2018-07-01T17:44:45.167Z,39.5
2018-07-01T17:45:05.638Z,39.3
2018-07-01T17:45:26.080Z,38.9
2018-07-01T17:45:47.170Z,38.9
2018-07-01T17:46:07.366Z,39.1
2018-07-01T17:46:27.674Z,39.5
2018-07-01T17:46:48.130Z,38.9
2018-07-01T17:47:08.537Z,39.4
2018-07-01T17:47:28.961Z,38.9
2018-07-01T17:47:49.220Z,38.9
2018-07-01T17:48:09.533Z,39.4
2018-07-01T17:48:29.883Z,38.9
2018-07-01T17:48:50.082Z,39.5
2018-07-01T17:49:10.466Z,39.5
2018-07-01T17:49:30.885Z,39.9
2018-07-01T17:49:51.257Z,40.4
2018-07-01T17:50:12.465Z,40.9
2018-07-01T17:50:32.795Z,40.2
2018-07-01T17:50:53.133Z,39.8
2018-07-01T17:51:13.532Z,39.7
2018-07-01T17:51:33.774Z,40.2
2018-07-01T17:51:54.058Z,40.1
2018-07-01T17:52:14.495Z,39.7
2018-07-01T17:52:34.835Z,39.8
2018-07-01T17:52:55.242Z,39.9
2018-07-01T17:53:15.602Z,40.1
2018-07-01T17:53:35.985Z,39.7
2018-07-01T17:53:56.636Z,39.7
2018-07-01T17:54:17.142Z,40
2018-07-01T17:54:37.379Z,40.4
2018-07-01T17:54:57.634Z,40.7
2018-07-01T17:55:17.886Z,40.9
2018-07-01T17:55:38.075Z,40.9
2018-07-01T17:55:58.404Z,41.1
2018-07-01T17:56:18.710Z,41.2
2018-07-01T17:56:39.068Z,40.9
2018-07-01T17:57:00.346Z,40.8
2018-07-01T17:57:20.651Z,41.1
2018-07-01T17:57:40.917Z,41.8
2018-07-01T17:58:01.335Z,41.3
2018-07-01T17:58:21.589Z,41
2018-07-01T17:58:41.863Z,40.7
2018-07-01T17:59:02.127Z,40.7
2018-07-01T17:59:22.472Z,40.9
2018-07-01T17:59:42.735Z,41.1
2018-07-01T18:00:03.154Z,40.9
2018-07-01T18:00:23.440Z,41
2018-07-01T18:00:43.865Z,41.8
2018-07-01T18:01:04.191Z,42.1
2018-07-01T18:01:24.461Z,41.8
2018-07-01T18:01:44.911Z,41.1
2018-07-01T18:02:05.062Z,41
2018-07-01T18:02:25.546Z,40.8
2018-07-01T18:02:45.882Z,40.7
2018-07-01T18:03:06.467Z,40.9
2018-07-01T18:03:26.657Z,41
2018-07-01T18:03:47.019Z,41.1
2018-07-01T18:04:07.354Z,40.8
2018-07-01T18:04:27.712Z,40.8
2018-07-01T18:04:47.995Z,41.3
2018-07-01T18:05:08.471Z,41.6
2018-07-01T18:05:28.784Z,41.9
2018-07-01T18:05:49.262Z,41.4
2018-07-01T18:06:09.525Z,41.6
2018-07-01T18:06:29.832Z,41.3
2018-07-01T18:06:50.197Z,41.7
2018-07-01T18:07:10.496Z,41.7
2018-07-01T18:07:31.071Z,41.2
2018-07-01T18:07:51.486Z,41.8
2018-07-01T18:08:11.867Z,42.2
2018-07-01T18:08:32.142Z,42.1
2018-07-01T18:08:53.224Z,41.8
2018-07-01T18:09:13.708Z,42.6
2018-07-01T18:09:35.123Z,42.7
2018-07-01T18:09:55.564Z,42.3
2018-07-01T18:10:15.903Z,42
2018-07-01T18:10:36.288Z,41.4
2018-07-01T18:10:57.572Z,42.6
2018-07-01T18:11:17.876Z,42.9
2018-07-01T18:11:38.482Z,43.5
2018-07-01T18:11:59.799Z,43.5
2018-07-01T18:12:21.152Z,43
2018-07-01T18:12:47.004Z,42.9
2018-07-01T18:13:11.311Z,43
2018-07-01T18:13:33.028Z,42.9
2018-07-01T18:13:53.959Z,42.9
2018-07-01T18:14:15.038Z,42.9
2018-07-01T18:14:36.773Z,42.9
2018-07-01T18:15:00.355Z,43
2018-07-01T18:15:21.741Z,43
2018-07-01T18:15:43.366Z,42.9
2018-07-01T18:16:05.350Z,42.6
2018-07-01T18:16:26.075Z,42.3
2018-07-01T18:16:46.468Z,42.3
2018-07-01T18:17:06.835Z,43
2018-07-01T18:17:27.214Z,42.9
2018-07-01T18:17:47.548Z,42.9
2018-07-01T18:18:08.924Z,42.9
2018-07-01T18:18:30.013Z,42.7
2018-07-01T18:18:50.518Z,42.9
2018-07-01T18:19:10.931Z,42.6
2018-07-01T18:19:31.264Z,42.3
2018-07-01T18:19:51.671Z,42.6
2018-07-01T18:20:12.091Z,42.3
2018-07-01T18:20:32.409Z,42.4
2018-07-01T18:20:52.951Z,42.1
2018-07-01T18:21:20.813Z,42.2
2018-07-01T18:23:18.239Z,42.1
2018-07-01T18:24:48.924Z,42.8
2018-07-01T18:25:12.343Z,42.4
2018-07-01T18:25:33.011Z,42.2
2018-07-01T18:25:53.379Z,43
2018-07-01T18:26:13.887Z,43.1
2018-07-01T18:26:34.491Z,43
2018-07-01T18:26:55.463Z,43
2018-07-01T18:27:17.138Z,42.9
2018-07-01T18:27:39.497Z,43.1
2018-07-01T18:28:22.702Z,42.8
2018-07-01T18:28:55.765Z,42.9
2018-07-01T18:29:17.869Z,42.2
2018-07-01T18:29:33.197Z,41.7
2018-07-01T18:29:53.465Z,41.8
2018-07-01T18:30:13.815Z,42.1
2018-07-01T18:30:34.198Z,42.2
2018-07-01T18:30:54.458Z,41.7
2018-07-01T18:31:14.757Z,42.1
2018-07-01T18:31:34.930Z,42.1
2018-07-01T18:31:55.462Z,41.7
2018-07-01T18:32:15.760Z,41.6
2018-07-01T18:32:36.198Z,41.3
2018-07-01T18:32:56.615Z,41.4
2018-07-01T18:33:16.821Z,41.9
2018-07-01T18:33:37.091Z,42.3
2018-07-01T18:33:57.429Z,42.2
2018-07-01T18:34:17.770Z,42
2018-07-01T18:34:38.087Z,41.3
2018-07-01T18:34:58.352Z,41.2
2018-07-01T18:35:18.753Z,41.5
2018-07-01T18:35:39.028Z,42
2018-07-01T18:35:59.357Z,42.5
2018-07-01T18:36:19.575Z,42.9
2018-07-01T18:36:39.984Z,42.6
2018-07-01T18:37:00.192Z,42.7
2018-07-01T18:37:20.958Z,42.7
2018-07-01T18:37:41.328Z,42.4
2018-07-01T18:38:01.756Z,42.9
2018-07-01T18:38:22.062Z,42.8
2018-07-01T18:38:43.336Z,43.1
2018-07-01T18:39:04.587Z,43.6
2018-07-01T18:39:24.833Z,42.9
2018-07-01T18:39:45.287Z,43.1
2018-07-01T18:40:07.069Z,42.9
2018-07-01T18:40:27.417Z,43.1
2018-07-01T18:40:48.280Z,43.1
2018-07-01T18:41:08.000Z,42.9
2018-07-01T18:41:28.180Z,42.8
2018-07-01T18:41:48.444Z,42.9
2018-07-01T18:42:08.799Z,43.4
2018-07-01T18:42:29.014Z,43.4
2018-07-01T18:42:49.365Z,43.6
2018-07-01T18:43:09.689Z,43.9
2018-07-01T18:43:30.012Z,43.6
2018-07-01T18:43:50.364Z,44.3
2018-07-01T18:44:10.671Z,44.1
2018-07-01T18:44:31.030Z,43.4
2018-07-01T18:44:51.328Z,43.1
2018-07-01T18:45:11.622Z,43.4
2018-07-01T18:45:31.908Z,43.2
2018-07-01T18:45:52.250Z,42.6
2018-07-01T18:46:12.685Z,43.1
2018-07-01T18:46:33.108Z,43.1
2018-07-01T18:46:53.433Z,42.7
2018-07-01T18:47:14.017Z,42.5
2018-07-01T18:47:34.323Z,42.9
2018-07-01T18:47:54.753Z,43.5
2018-07-01T18:48:14.993Z,43.2
2018-07-01T18:48:35.277Z,43.5
2018-07-01T18:48:55.579Z,44.1
2018-07-01T18:49:15.888Z,44.6
2018-07-01T18:49:36.252Z,44.5
2018-07-01T18:49:56.513Z,44.4
2018-07-01T18:50:16.805Z,44.3
2018-07-01T18:50:37.197Z,44.8
2018-07-01T18:50:57.525Z,44.3
2018-07-01T18:51:18.866Z,43.9
2018-07-01T18:51:39.149Z,44.3
2018-07-01T18:51:59.549Z,43.4
2018-07-01T18:52:19.884Z,43.6
2018-07-01T18:52:40.356Z,44.1
2018-07-01T18:53:00.710Z,44.5
2018-07-01T18:53:21.112Z,44.8
2018-07-01T18:53:41.309Z,44.5
2018-07-01T18:54:01.767Z,44.3
2018-07-01T18:54:22.154Z,43.7
2018-07-01T18:54:42.413Z,43.5
2018-07-01T18:55:02.728Z,44.1
2018-07-01T18:55:22.970Z,44.8
2018-07-01T18:55:43.172Z,44.8
2018-07-01T18:56:03.427Z,46.1
2018-07-01T18:56:23.703Z,45.8
2018-07-01T18:56:43.978Z,44.8
2018-07-01T18:57:04.203Z,44.7
2018-07-01T18:57:24.533Z,45.8
2018-07-01T18:57:44.889Z,45.8
2018-07-01T18:58:05.068Z,45
2018-07-01T18:58:25.359Z,44.7
2018-07-01T18:58:45.747Z,44.9
2018-07-01T18:59:06.049Z,45.6
2018-07-01T18:59:27.250Z,45.7
2018-07-01T18:59:47.250Z,44.9
2018-07-01T19:00:07.713Z,44.8
2018-07-01T19:00:28.157Z,46.1
2018-07-01T19:00:48.466Z,46.4
2018-07-01T19:01:08.856Z,45.9
2018-07-01T19:01:29.084Z,45.8
2018-07-01T19:01:49.435Z,46.7